Alcala de Guadaira, Spain
Current Conditions -  °F | °C
As of 1:00 PM on Sunday 25 Jan 2015 (Local Time) from LEZL Reporting Station
Clear Clear  
Wind Chill: 57°   Ceiling: Unl
Heat Index: 57°   Visibility: 6mi
Dew Point: 36°   Wind: 10mph
Humidity: 44%   Direction: 80°E
Pressure: 30.33"   Gusts: NA
Location:  37.34°N, 5.84°W
Report Text: LEZL 251200Z 08009KT CAVOK 14/02 Q1027 NOSIG
Loading
Personal Weather Stations






























Interactive Weather Map New forecast layout! Learn more

10-Day Weather Forecast

Advertisements
Track Severe Weather on mobile